sensor_id;sensor_type;location;lat;lon;timestamp;P1;durP1;ratioP1;P2;durP2;ratioP2
62543;SDS011;48597;49.030;1.822;2023-06-10T00:02:15;2.97;;;2.60;;
62543;SDS011;48597;49.030;1.822;2023-06-10T00:04:42;2.53;;;2.33;;
62543;SDS011;48597;49.030;1.822;2023-06-10T00:07:07;2.85;;;2.65;;
62543;SDS011;48597;49.030;1.822;2023-06-10T00:09:37;2.90;;;2.70;;
62543;SDS011;48597;49.030;1.822;2023-06-10T00:12:04;2.90;;;2.70;;
62543;SDS011;48597;49.030;1.822;2023-06-10T00:14:32;2.80;;;2.45;;
62543;SDS011;48597;49.030;1.822;2023-06-10T00:16:57;3.05;;;2.75;;
62543;SDS011;48597;49.030;1.822;2023-06-10T00:19:24;3.10;;;2.78;;
62543;SDS011;48597;49.030;1.822;2023-06-10T00:21:50;3.20;;;2.90;;
62543;SDS011;48597;49.030;1.822;2023-06-10T00:24:17;3.08;;;2.78;;
62543;SDS011;48597;49.030;1.822;2023-06-10T00:26:43;3.70;;;2.83;;
62543;SDS011;48597;49.030;1.822;2023-06-10T00:29:08;3.85;;;2.75;;
62543;SDS011;48597;49.030;1.822;2023-06-10T00:31:34;2.80;;;2.47;;
62543;SDS011;48597;49.030;1.822;2023-06-10T00:34:00;2.80;;;2.60;;
62543;SDS011;48597;49.030;1.822;2023-06-10T00:36:27;3.03;;;2.72;;
62543;SDS011;48597;49.030;1.822;2023-06-10T00:38:53;2.80;;;2.60;;
62543;SDS011;48597;49.030;1.822;2023-06-10T00:41:19;3.05;;;2.85;;
62543;SDS011;48597;49.030;1.822;2023-06-10T00:43:44;2.80;;;2.60;;
62543;SDS011;48597;49.030;1.822;2023-06-10T00:46:10;3.05;;;2.75;;
62543;SDS011;48597;49.030;1.822;2023-06-10T00:48:37;2.97;;;2.72;;
62543;SDS011;48597;49.030;1.822;2023-06-10T00:51:04;3.13;;;2.83;;
62543;SDS011;48597;49.030;1.822;2023-06-10T00:53:30;2.85;;;2.65;;
62543;SDS011;48597;49.030;1.822;2023-06-10T00:55:57;2.88;;;2.63;;
62543;SDS011;48597;49.030;1.822;2023-06-10T00:58:23;3.28;;;2.90;;
62543;SDS011;48597;49.030;1.822;2023-06-10T01:00:49;3.10;;;2.80;;
62543;SDS011;48597;49.030;1.822;2023-06-10T01:03:15;4.47;;;2.90;;
62543;SDS011;48597;49.030;1.822;2023-06-10T01:05:42;3.10;;;2.80;;
62543;SDS011;48597;49.030;1.822;2023-06-10T01:10:53;2.80;;;2.60;;
62543;SDS011;48597;49.030;1.822;2023-06-10T01:13:23;3.20;;;2.90;;
62543;SDS011;48597;49.030;1.822;2023-06-10T01:15:49;3.03;;;2.83;;
62543;SDS011;48597;49.030;1.822;2023-06-10T01:18:16;2.88;;;2.53;;
62543;SDS011;48597;49.030;1.822;2023-06-10T01:20:43;3.20;;;2.90;;
62543;SDS011;48597;49.030;1.822;2023-06-10T01:23:09;3.20;;;2.83;;
62543;SDS011;48597;49.030;1.822;2023-06-10T01:25:44;3.88;;;3.08;;
62543;SDS011;48597;49.030;1.822;2023-06-10T01:28:17;3.00;;;2.80;;
62543;SDS011;48597;49.030;1.822;2023-06-10T01:30:55;3.10;;;2.80;;
62543;SDS011;48597;49.030;1.822;2023-06-10T01:33:26;3.25;;;2.95;;
62543;SDS011;48597;49.030;1.822;2023-06-10T01:35:53;3.75;;;2.80;;
62543;SDS011;48597;49.030;1.822;2023-06-10T01:38:21;3.40;;;3.10;;
62543;SDS011;48597;49.030;1.822;2023-06-10T01:40:49;2.85;;;2.65;;
62543;SDS011;48597;49.030;1.822;2023-06-10T01:43:16;3.05;;;2.75;;
62543;SDS011;48597;49.030;1.822;2023-06-10T01:45:42;3.17;;;2.88;;
62543;SDS011;48597;49.030;1.822;2023-06-10T01:48:07;2.80;;;2.60;;
62543;SDS011;48597;49.030;1.822;2023-06-10T01:50:32;3.08;;;2.78;;
62543;SDS011;48597;49.030;1.822;2023-06-10T01:52:59;3.17;;;2.88;;
62543;SDS011;48597;49.030;1.822;2023-06-10T01:55:24;3.10;;;2.80;;
62543;SDS011;48597;49.030;1.822;2023-06-10T01:57:50;3.42;;;3.13;;
62543;SDS011;48597;49.030;1.822;2023-06-10T02:00:16;3.10;;;2.80;;
62543;SDS011;48597;49.030;1.822;2023-06-10T02:02:42;3.55;;;3.17;;
62543;SDS011;48597;49.030;1.822;2023-06-10T02:05:07;3.10;;;2.85;;
62543;SDS011;48597;49.030;1.822;2023-06-10T02:07:33;3.13;;;2.92;;
62543;SDS011;48597;49.030;1.822;2023-06-10T02:09:58;3.80;;;3.17;;
62543;SDS011;48597;49.030;1.822;2023-06-10T02:12:24;2.63;;;2.42;;
62543;SDS011;48597;49.030;1.822;2023-06-10T02:14:49;3.00;;;2.80;;
62543;SDS011;48597;49.030;1.822;2023-06-10T02:17:15;3.25;;;2.95;;
62543;SDS011;48597;49.030;1.822;2023-06-10T02:19:41;3.40;;;3.10;;
62543;SDS011;48597;49.030;1.822;2023-06-10T02:22:08;2.90;;;2.70;;
62543;SDS011;48597;49.030;1.822;2023-06-10T02:24:35;3.03;;;2.75;;
62543;SDS011;48597;49.030;1.822;2023-06-10T02:27:01;3.08;;;2.85;;
62543;SDS011;48597;49.030;1.822;2023-06-10T02:29:27;3.10;;;2.90;;
62543;SDS011;48597;49.030;1.822;2023-06-10T02:31:52;3.10;;;2.90;;
62543;SDS011;48597;49.030;1.822;2023-06-10T02:34:18;3.17;;;2.92;;
62543;SDS011;48597;49.030;1.822;2023-06-10T02:36:43;3.45;;;3.15;;
62543;SDS011;48597;49.030;1.822;2023-06-10T02:39:09;4.03;;;3.00;;
62543;SDS011;48597;49.030;1.822;2023-06-10T02:41:34;3.03;;;2.72;;
62543;SDS011;48597;49.030;1.822;2023-06-10T02:44:00;2.72;;;2.53;;
62543;SDS011;48597;49.030;1.822;2023-06-10T02:46:25;3.30;;;3.00;;
62543;SDS011;48597;49.030;1.822;2023-06-10T02:48:51;3.30;;;3.00;;
62543;SDS011;48597;49.030;1.822;2023-06-10T02:51:17;3.30;;;3.00;;
62543;SDS011;48597;49.030;1.822;2023-06-10T02:53:42;3.25;;;2.95;;
62543;SDS011;48597;49.030;1.822;2023-06-10T02:56:08;3.20;;;2.67;;
62543;SDS011;48597;49.030;1.822;2023-06-10T02:58:33;3.00;;;2.80;;
62543;SDS011;48597;49.030;1.822;2023-06-10T03:00:58;3.00;;;2.80;;
62543;SDS011;48597;49.030;1.822;2023-06-10T03:03:24;3.00;;;2.80;;
62543;SDS011;48597;49.030;1.822;2023-06-10T03:05:50;3.08;;;2.80;;
62543;SDS011;48597;49.030;1.822;2023-06-10T03:08:16;3.45;;;3.15;;
62543;SDS011;48597;49.030;1.822;2023-06-10T03:10:41;3.30;;;3.00;;
62543;SDS011;48597;49.030;1.822;2023-06-10T03:13:06;2.85;;;2.65;;
62543;SDS011;48597;49.030;1.822;2023-06-10T03:15:32;3.28;;;2.97;;
62543;SDS011;48597;49.030;1.822;2023-06-10T03:17:59;3.05;;;2.83;;
62543;SDS011;48597;49.030;1.822;2023-06-10T03:20:25;2.90;;;2.67;;
62543;SDS011;48597;49.030;1.822;2023-06-10T03:22:52;3.03;;;2.83;;
62543;SDS011;48597;49.030;1.822;2023-06-10T03:25:18;3.22;;;3.03;;
62543;SDS011;48597;49.030;1.822;2023-06-10T03:27:45;3.88;;;3.58;;
62543;SDS011;48597;49.030;1.822;2023-06-10T03:30:12;3.03;;;2.83;;
62543;SDS011;48597;49.030;1.822;2023-06-10T03:32:38;3.13;;;2.90;;
62543;SDS011;48597;49.030;1.822;2023-06-10T03:35:04;3.58;;;3.28;;
62543;SDS011;48597;49.030;1.822;2023-06-10T03:37:30;2.90;;;2.70;;
62543;SDS011;48597;49.030;1.822;2023-06-10T03:39:56;3.50;;;3.20;;
62543;SDS011;48597;49.030;1.822;2023-06-10T03:42:21;3.30;;;3.05;;
62543;SDS011;48597;49.030;1.822;2023-06-10T03:44:46;3.60;;;3.30;;
62543;SDS011;48597;49.030;1.822;2023-06-10T03:47:12;3.08;;;2.88;;
62543;SDS011;48597;49.030;1.822;2023-06-10T03:49:38;3.83;;;3.38;;
62543;SDS011;48597;49.030;1.822;2023-06-10T03:52:05;4.00;;;2.95;;
62543;SDS011;48597;49.030;1.822;2023-06-10T03:54:31;3.30;;;3.00;;
62543;SDS011;48597;49.030;1.822;2023-06-10T03:56:56;3.30;;;3.00;;
62543;SDS011;48597;49.030;1.822;2023-06-10T03:59:22;3.67;;;3.13;;
62543;SDS011;48597;49.030;1.822;2023-06-10T04:01:47;3.28;;;2.92;;
62543;SDS011;48597;49.030;1.822;2023-06-10T04:04:13;3.28;;;2.90;;
62543;SDS011;48597;49.030;1.822;2023-06-10T04:06:41;3.05;;;2.83;;
62543;SDS011;48597;49.030;1.822;2023-06-10T04:09:08;4.15;;;3.25;;
62543;SDS011;48597;49.030;1.822;2023-06-10T04:11:34;3.10;;;2.78;;
62543;SDS011;48597;49.030;1.822;2023-06-10T04:14:00;3.42;;;3.10;;
62543;SDS011;48597;49.030;1.822;2023-06-10T04:16:26;3.33;;;3.00;;
62543;SDS011;48597;49.030;1.822;2023-06-10T04:18:52;3.85;;;3.53;;
62543;SDS011;48597;49.030;1.822;2023-06-10T04:21:17;3.17;;;2.83;;
62543;SDS011;48597;49.030;1.822;2023-06-10T04:23:43;3.30;;;3.00;;
62543;SDS011;48597;49.030;1.822;2023-06-10T04:26:08;4.07;;;3.15;;
62543;SDS011;48597;49.030;1.822;2023-06-10T04:28:33;3.50;;;3.20;;
62543;SDS011;48597;49.030;1.822;2023-06-10T04:30:59;3.50;;;3.20;;
62543;SDS011;48597;49.030;1.822;2023-06-10T04:33:24;3.10;;;2.80;;
62543;SDS011;48597;49.030;1.822;2023-06-10T04:35:50;3.42;;;3.00;;
62543;SDS011;48597;49.030;1.822;2023-06-10T04:38:15;3.28;;;2.97;;
62543;SDS011;48597;49.030;1.822;2023-06-10T04:40:41;3.35;;;3.05;;
62543;SDS011;48597;49.030;1.822;2023-06-10T04:43:06;3.47;;;3.17;;
62543;SDS011;48597;49.030;1.822;2023-06-10T04:45:31;3.22;;;2.95;;
62543;SDS011;48597;49.030;1.822;2023-06-10T04:47:57;3.63;;;3.33;;
62543;SDS011;48597;49.030;1.822;2023-06-10T04:50:22;3.40;;;3.10;;
62543;SDS011;48597;49.030;1.822;2023-06-10T04:52:48;3.83;;;3.22;;
62543;SDS011;48597;49.030;1.822;2023-06-10T04:55:13;3.50;;;3.20;;
62543;SDS011;48597;49.030;1.822;2023-06-10T04:57:38;3.38;;;3.08;;
62543;SDS011;48597;49.030;1.822;2023-06-10T05:00:04;3.33;;;3.05;;
62543;SDS011;48597;49.030;1.822;2023-06-10T05:02:31;3.60;;;3.30;;
62543;SDS011;48597;49.030;1.822;2023-06-10T05:04:56;3.55;;;3.25;;
62543;SDS011;48597;49.030;1.822;2023-06-10T05:07:23;3.38;;;3.08;;
62543;SDS011;48597;49.030;1.822;2023-06-10T05:09:48;3.85;;;3.45;;
62543;SDS011;48597;49.030;1.822;2023-06-10T05:12:13;3.40;;;3.10;;
62543;SDS011;48597;49.030;1.822;2023-06-10T05:14:39;3.50;;;3.15;;
62543;SDS011;48597;49.030;1.822;2023-06-10T05:17:04;3.40;;;3.10;;
62543;SDS011;48597;49.030;1.822;2023-06-10T05:19:33;3.60;;;3.30;;
62543;SDS011;48597;49.030;1.822;2023-06-10T05:21:58;3.20;;;3.00;;
62543;SDS011;48597;49.030;1.822;2023-06-10T05:24:24;3.45;;;3.15;;
62543;SDS011;48597;49.030;1.822;2023-06-10T05:26:49;3.33;;;3.03;;
62543;SDS011;48597;49.030;1.822;2023-06-10T05:29:15;3.83;;;3.53;;
62543;SDS011;48597;49.030;1.822;2023-06-10T05:31:40;3.53;;;3.22;;
62543;SDS011;48597;49.030;1.822;2023-06-10T05:34:06;3.58;;;3.28;;
62543;SDS011;48597;49.030;1.822;2023-06-10T05:36:32;3.63;;;3.33;;
62543;SDS011;48597;49.030;1.822;2023-06-10T05:38:57;3.60;;;3.30;;
62543;SDS011;48597;49.030;1.822;2023-06-10T05:41:23;3.60;;;3.30;;
62543;SDS011;48597;49.030;1.822;2023-06-10T05:43:48;4.53;;;3.53;;
62543;SDS011;48597;49.030;1.822;2023-06-10T05:46:14;3.70;;;3.40;;
62543;SDS011;48597;49.030;1.822;2023-06-10T05:48:39;3.53;;;3.22;;
62543;SDS011;48597;49.030;1.822;2023-06-10T05:51:05;3.60;;;3.30;;
62543;SDS011;48597;49.030;1.822;2023-06-10T05:53:31;3.55;;;3.25;;
62543;SDS011;48597;49.030;1.822;2023-06-10T05:55:57;3.45;;;3.15;;
62543;SDS011;48597;49.030;1.822;2023-06-10T05:58:23;3.50;;;3.20;;
62543;SDS011;48597;49.030;1.822;2023-06-10T06:00:49;3.67;;;3.25;;
62543;SDS011;48597;49.030;1.822;2023-06-10T06:03:15;3.53;;;3.22;;
62543;SDS011;48597;49.030;1.822;2023-06-10T06:05:40;3.42;;;3.13;;
62543;SDS011;48597;49.030;1.822;2023-06-10T06:08:05;3.60;;;3.30;;
62543;SDS011;48597;49.030;1.822;2023-06-10T06:10:32;3.60;;;3.10;;
62543;SDS011;48597;49.030;1.822;2023-06-10T06:12:57;3.83;;;3.42;;
62543;SDS011;48597;49.030;1.822;2023-06-10T06:15:23;3.50;;;3.10;;
62543;SDS011;48597;49.030;1.822;2023-06-10T06:17:49;3.60;;;3.30;;
62543;SDS011;48597;49.030;1.822;2023-06-10T06:20:15;3.60;;;3.30;;
62543;SDS011;48597;49.030;1.822;2023-06-10T06:22:41;3.65;;;3.35;;
62543;SDS011;48597;49.030;1.822;2023-06-10T06:25:07;3.60;;;3.30;;
62543;SDS011;48597;49.030;1.822;2023-06-10T06:27:32;4.07;;;3.70;;
62543;SDS011;48597;49.030;1.822;2023-06-10T06:29:58;4.03;;;3.63;;
62543;SDS011;48597;49.030;1.822;2023-06-10T06:32:24;3.45;;;3.13;;
62543;SDS011;48597;49.030;1.822;2023-06-10T06:34:51;3.60;;;3.30;;
62543;SDS011;48597;49.030;1.822;2023-06-10T06:37:20;3.75;;;3.45;;
62543;SDS011;48597;49.030;1.822;2023-06-10T06:39:46;4.15;;;3.58;;
62543;SDS011;48597;49.030;1.822;2023-06-10T06:42:12;4.00;;;3.60;;
62543;SDS011;48597;49.030;1.822;2023-06-10T06:44:37;4.07;;;3.67;;
62543;SDS011;48597;49.030;1.822;2023-06-10T06:47:02;3.35;;;3.05;;
62543;SDS011;48597;49.030;1.822;2023-06-10T06:49:28;3.47;;;3.17;;
62543;SDS011;48597;49.030;1.822;2023-06-10T06:51:53;3.60;;;3.30;;
62543;SDS011;48597;49.030;1.822;2023-06-10T06:54:19;3.45;;;3.15;;
62543;SDS011;48597;49.030;1.822;2023-06-10T06:56:45;3.40;;;3.10;;
62543;SDS011;48597;49.030;1.822;2023-06-10T06:59:10;3.10;;;2.90;;
62543;SDS011;48597;49.030;1.822;2023-06-10T07:01:36;4.10;;;3.75;;
62543;SDS011;48597;49.030;1.822;2023-06-10T07:04:01;4.07;;;3.67;;
62543;SDS011;48597;49.030;1.822;2023-06-10T07:06:26;3.60;;;3.30;;
62543;SDS011;48597;49.030;1.822;2023-06-10T07:08:52;3.55;;;3.28;;
62543;SDS011;48597;49.030;1.822;2023-06-10T07:11:17;3.60;;;3.30;;
62543;SDS011;48597;49.030;1.822;2023-06-10T07:13:42;3.47;;;3.17;;
62543;SDS011;48597;49.030;1.822;2023-06-10T07:16:08;3.95;;;3.20;;
62543;SDS011;48597;49.030;1.822;2023-06-10T07:18:33;3.53;;;3.22;;
62543;SDS011;48597;49.030;1.822;2023-06-10T07:20:59;3.45;;;3.15;;
62543;SDS011;48597;49.030;1.822;2023-06-10T07:23:24;3.85;;;3.42;;
62543;SDS011;48597;49.030;1.822;2023-06-10T07:25:49;3.63;;;3.33;;
62543;SDS011;48597;49.030;1.822;2023-06-10T07:28:15;4.07;;;3.67;;
62543;SDS011;48597;49.030;1.822;2023-06-10T07:30:40;3.85;;;3.47;;
62543;SDS011;48597;49.030;1.822;2023-06-10T07:33:06;4.10;;;3.70;;
62543;SDS011;48597;49.030;1.822;2023-06-10T07:35:32;4.13;;;3.53;;
62543;SDS011;48597;49.030;1.822;2023-06-10T07:37:58;4.38;;;3.45;;
62543;SDS011;48597;49.030;1.822;2023-06-10T07:40:23;3.50;;;3.20;;
62543;SDS011;48597;49.030;1.822;2023-06-10T07:42:49;3.65;;;3.33;;
62543;SDS011;48597;49.030;1.822;2023-06-10T07:45:14;4.57;;;3.50;;
62543;SDS011;48597;49.030;1.822;2023-06-10T07:47:40;3.15;;;2.85;;
62543;SDS011;48597;49.030;1.822;2023-06-10T07:50:05;3.50;;;3.20;;
62543;SDS011;48597;49.030;1.822;2023-06-10T07:52:31;3.80;;;3.40;;
62543;SDS011;48597;49.030;1.822;2023-06-10T07:54:56;3.80;;;3.50;;
62543;SDS011;48597;49.030;1.822;2023-06-10T07:57:22;3.70;;;3.40;;
62543;SDS011;48597;49.030;1.822;2023-06-10T07:59:47;3.60;;;3.30;;
62543;SDS011;48597;49.030;1.822;2023-06-10T08:02:12;3.55;;;3.25;;
62543;SDS011;48597;49.030;1.822;2023-06-10T08:04:38;3.55;;;3.13;;
62543;SDS011;48597;49.030;1.822;2023-06-10T08:07:03;3.30;;;3.00;;
62543;SDS011;48597;49.030;1.822;2023-06-10T08:09:29;3.50;;;3.20;;
62543;SDS011;48597;49.030;1.822;2023-06-10T08:11:54;3.30;;;3.00;;
62543;SDS011;48597;49.030;1.822;2023-06-10T08:14:20;2.95;;;2.65;;
62543;SDS011;48597;49.030;1.822;2023-06-10T08:16:46;3.00;;;2.70;;
62543;SDS011;48597;49.030;1.822;2023-06-10T08:19:11;6.35;;;3.20;;
62543;SDS011;48597;49.030;1.822;2023-06-10T08:21:37;3.38;;;2.90;;
62543;SDS011;48597;49.030;1.822;2023-06-10T08:24:04;3.30;;;3.00;;
62543;SDS011;48597;49.030;1.822;2023-06-10T08:26:30;3.67;;;3.30;;
62543;SDS011;48597;49.030;1.822;2023-06-10T08:28:56;3.20;;;2.90;;
62543;SDS011;48597;49.030;1.822;2023-06-10T08:31:21;3.67;;;3.13;;
62543;SDS011;48597;49.030;1.822;2023-06-10T08:33:46;3.00;;;2.70;;
62543;SDS011;48597;49.030;1.822;2023-06-10T08:36:12;2.97;;;2.58;;
62543;SDS011;48597;49.030;1.822;2023-06-10T08:38:38;3.58;;;3.15;;
62543;SDS011;48597;49.030;1.822;2023-06-10T08:41:04;2.88;;;2.67;;
62543;SDS011;48597;49.030;1.822;2023-06-10T08:46:03;3.95;;;3.00;;
62543;SDS011;48597;49.030;1.822;2023-06-10T08:48:29;4.03;;;3.20;;
62543;SDS011;48597;49.030;1.822;2023-06-10T08:50:56;3.15;;;2.83;;
62543;SDS011;48597;49.030;1.822;2023-06-10T08:53:26;2.60;;;2.40;;
62543;SDS011;48597;49.030;1.822;2023-06-10T08:55:53;3.67;;;3.30;;
62543;SDS011;48597;49.030;1.822;2023-06-10T08:58:22;2.83;;;2.63;;
62543;SDS011;48597;49.030;1.822;2023-06-10T09:00:47;2.97;;;2.60;;
62543;SDS011;48597;49.030;1.822;2023-06-10T09:03:13;2.83;;;2.63;;
62543;SDS011;48597;49.030;1.822;2023-06-10T09:05:38;2.95;;;2.65;;
62543;SDS011;48597;49.030;1.822;2023-06-10T09:08:07;3.22;;;2.92;;
62543;SDS011;48597;49.030;1.822;2023-06-10T09:10:34;3.08;;;2.70;;
62543;SDS011;48597;49.030;1.822;2023-06-10T09:12:59;3.65;;;3.00;;
62543;SDS011;48597;49.030;1.822;2023-06-10T09:15:25;3.22;;;2.42;;
62543;SDS011;48597;49.030;1.822;2023-06-10T09:17:50;4.05;;;2.60;;
62543;SDS011;48597;49.030;1.822;2023-06-10T09:20:16;3.47;;;2.83;;
62543;SDS011;48597;49.030;1.822;2023-06-10T09:22:42;3.20;;;2.90;;
62543;SDS011;48597;49.030;1.822;2023-06-10T09:25:09;2.80;;;2.42;;
62543;SDS011;48597;49.030;1.822;2023-06-10T09:32:58;2.50;;;2.30;;
62543;SDS011;48597;49.030;1.822;2023-06-10T09:35:25;2.78;;;2.58;;
62543;SDS011;48597;49.030;1.822;2023-06-10T09:37:54;3.65;;;2.80;;
62543;SDS011;48597;49.030;1.822;2023-06-10T09:40:24;2.85;;;2.60;;
62543;SDS011;48597;49.030;1.822;2023-06-10T09:42:54;3.00;;;2.70;;
62543;SDS011;48597;49.030;1.822;2023-06-10T09:45:23;2.95;;;2.65;;
62543;SDS011;48597;49.030;1.822;2023-06-10T09:47:54;3.35;;;2.90;;
62543;SDS011;48597;49.030;1.822;2023-06-10T09:50:20;3.78;;;2.83;;
62543;SDS011;48597;49.030;1.822;2023-06-10T09:52:46;3.30;;;3.00;;
62543;SDS011;48597;49.030;1.822;2023-06-10T09:55:13;2.85;;;2.65;;
62543;SDS011;48597;49.030;1.822;2023-06-10T09:57:39;4.07;;;2.90;;
62543;SDS011;48597;49.030;1.822;2023-06-10T10:00:07;3.20;;;2.55;;
62543;SDS011;48597;49.030;1.822;2023-06-10T10:02:43;2.80;;;2.60;;
62543;SDS011;48597;49.030;1.822;2023-06-10T10:05:16;3.50;;;2.72;;
62543;SDS011;48597;49.030;1.822;2023-06-10T10:07:43;3.15;;;2.50;;
62543;SDS011;48597;49.030;1.822;2023-06-10T10:10:09;3.25;;;2.80;;
62543;SDS011;48597;49.030;1.822;2023-06-10T10:12:36;3.10;;;2.78;;
62543;SDS011;48597;49.030;1.822;2023-06-10T10:15:03;2.70;;;2.50;;
62543;SDS011;48597;49.030;1.822;2023-06-10T10:17:32;3.10;;;2.40;;
62543;SDS011;48597;49.030;1.822;2023-06-10T10:20:03;2.97;;;2.70;;
62543;SDS011;48597;49.030;1.822;2023-06-10T10:22:32;3.92;;;2.85;;
62543;SDS011;48597;49.030;1.822;2023-06-10T10:25:02;2.72;;;2.53;;
62543;SDS011;48597;49.030;1.822;2023-06-10T10:30:14;2.95;;;2.65;;
62543;SDS011;48597;49.030;1.822;2023-06-10T10:35:26;4.28;;;2.90;;
62543;SDS011;48597;49.030;1.822;2023-06-10T10:37:52;3.40;;;2.75;;
62543;SDS011;48597;49.030;1.822;2023-06-10T10:40:19;2.97;;;2.78;;
62543;SDS011;48597;49.030;1.822;2023-06-10T10:42:47;4.85;;;2.85;;
62543;SDS011;48597;49.030;1.822;2023-06-10T10:45:14;3.30;;;2.70;;
62543;SDS011;48597;49.030;1.822;2023-06-10T10:47:39;3.75;;;2.60;;
62543;SDS011;48597;49.030;1.822;2023-06-10T10:50:15;3.20;;;2.60;;
62543;SDS011;48597;49.030;1.822;2023-06-10T10:52:51;3.55;;;2.90;;
62543;SDS011;48597;49.030;1.822;2023-06-10T10:55:27;3.28;;;2.90;;
62543;SDS011;48597;49.030;1.822;2023-06-10T10:57:57;3.53;;;2.53;;
62543;SDS011;48597;49.030;1.822;2023-06-10T11:00:31;4.57;;;2.83;;
62543;SDS011;48597;49.030;1.822;2023-06-10T11:03:12;3.25;;;2.95;;
62543;SDS011;48597;49.030;1.822;2023-06-10T11:08:09;3.28;;;2.60;;
62543;SDS011;48597;49.030;1.822;2023-06-10T11:10:36;3.92;;;2.53;;
62543;SDS011;48597;49.030;1.822;2023-06-10T11:13:12;4.22;;;2.42;;
62543;SDS011;48597;49.030;1.822;2023-06-10T11:15:49;3.30;;;2.70;;
62543;SDS011;48597;49.030;1.822;2023-06-10T11:26:08;3.30;;;3.00;;
62543;SDS011;48597;49.030;1.822;2023-06-10T11:28:38;3.38;;;2.88;;
62543;SDS011;48597;49.030;1.822;2023-06-10T11:31:04;4.07;;;3.03;;
62543;SDS011;48597;49.030;1.822;2023-06-10T11:33:30;2.60;;;2.40;;
62543;SDS011;48597;49.030;1.822;2023-06-10T11:35:56;4.30;;;2.90;;
62543;SDS011;48597;49.030;1.822;2023-06-10T11:38:21;5.68;;;3.08;;
62543;SDS011;48597;49.030;1.822;2023-06-10T11:40:51;4.10;;;2.85;;
62543;SDS011;48597;49.030;1.822;2023-06-10T11:43:17;3.95;;;3.05;;
62543;SDS011;48597;49.030;1.822;2023-06-10T11:45:43;3.67;;;2.85;;
62543;SDS011;48597;49.030;1.822;2023-06-10T11:48:09;3.60;;;3.15;;
62543;SDS011;48597;49.030;1.822;2023-06-10T11:50:34;3.13;;;2.80;;
62543;SDS011;48597;49.030;1.822;2023-06-10T11:53:00;3.72;;;2.90;;
62543;SDS011;48597;49.030;1.822;2023-06-10T11:55:38;3.50;;;2.80;;
62543;SDS011;48597;49.030;1.822;2023-06-10T12:03:10;3.75;;;2.70;;
62543;SDS011;48597;49.030;1.822;2023-06-10T12:05:35;3.90;;;3.05;;
62543;SDS011;48597;49.030;1.822;2023-06-10T12:08:07;4.78;;;2.65;;
62543;SDS011;48597;49.030;1.822;2023-06-10T12:10:38;4.78;;;3.17;;
62543;SDS011;48597;49.030;1.822;2023-06-10T12:13:05;3.50;;;2.92;;
62543;SDS011;48597;49.030;1.822;2023-06-10T12:15:31;3.78;;;2.92;;
62543;SDS011;48597;49.030;1.822;2023-06-10T12:17:57;3.92;;;2.90;;
62543;SDS011;48597;49.030;1.822;2023-06-10T12:20:32;4.32;;;3.15;;
62543;SDS011;48597;49.030;1.822;2023-06-10T12:23:07;3.10;;;2.80;;
62543;SDS011;48597;49.030;1.822;2023-06-10T12:25:34;3.30;;;3.00;;
62543;SDS011;48597;49.030;1.822;2023-06-10T12:28:01;4.65;;;3.40;;
62543;SDS011;48597;49.030;1.822;2023-06-10T12:30:27;4.22;;;3.00;;
62543;SDS011;48597;49.030;1.822;2023-06-10T12:32:54;4.22;;;2.67;;
62543;SDS011;48597;49.030;1.822;2023-06-10T12:35:21;4.35;;;3.08;;
62543;SDS011;48597;49.030;1.822;2023-06-10T12:37:54;4.18;;;3.10;;
62543;SDS011;48597;49.030;1.822;2023-06-10T12:40:28;5.22;;;3.35;;
62543;SDS011;48597;49.030;1.822;2023-06-10T12:42:58;4.63;;;2.92;;
62543;SDS011;48597;49.030;1.822;2023-06-10T12:45:28;4.25;;;3.15;;
62543;SDS011;48597;49.030;1.822;2023-06-10T12:48:43;5.90;;;3.27;;
62543;SDS011;48597;49.030;1.822;2023-06-10T12:50:44;6.10;;;2.95;;
62543;SDS011;48597;49.030;1.822;2023-06-10T12:53:12;4.28;;;3.22;;
62543;SDS011;48597;49.030;1.822;2023-06-10T12:55:37;5.80;;;3.28;;
62543;SDS011;48597;49.030;1.822;2023-06-10T12:58:03;6.13;;;3.42;;
62543;SDS011;48597;49.030;1.822;2023-06-10T13:00:29;4.53;;;3.03;;
62543;SDS011;48597;49.030;1.822;2023-06-10T13:02:59;4.90;;;3.10;;
62543;SDS011;48597;49.030;1.822;2023-06-10T13:05:26;4.70;;;3.17;;
62543;SDS011;48597;49.030;1.822;2023-06-10T13:07:52;5.47;;;3.05;;
62543;SDS011;48597;49.030;1.822;2023-06-10T13:10:17;4.93;;;3.17;;
62543;SDS011;48597;49.030;1.822;2023-06-10T13:12:43;6.65;;;3.28;;
62543;SDS011;48597;49.030;1.822;2023-06-10T13:15:09;4.25;;;3.13;;
62543;SDS011;48597;49.030;1.822;2023-06-10T13:17:35;4.25;;;3.25;;
62543;SDS011;48597;49.030;1.822;2023-06-10T13:20:02;3.22;;;2.92;;
62543;SDS011;48597;49.030;1.822;2023-06-10T13:22:30;6.38;;;3.10;;
62543;SDS011;48597;49.030;1.822;2023-06-10T13:24:57;6.40;;;3.42;;
62543;SDS011;48597;49.030;1.822;2023-06-10T13:27:23;5.95;;;2.95;;
62543;SDS011;48597;49.030;1.822;2023-06-10T13:29:48;9.10;;;3.28;;
62543;SDS011;48597;49.030;1.822;2023-06-10T13:32:14;4.03;;;3.45;;
62543;SDS011;48597;49.030;1.822;2023-06-10T13:34:39;4.82;;;2.88;;
62543;SDS011;48597;49.030;1.822;2023-06-10T13:37:05;6.45;;;2.85;;
62543;SDS011;48597;49.030;1.822;2023-06-10T13:39:31;4.07;;;3.22;;
62543;SDS011;48597;49.030;1.822;2023-06-10T13:41:56;5.07;;;3.25;;
62543;SDS011;48597;49.030;1.822;2023-06-10T13:44:21;5.05;;;3.50;;
62543;SDS011;48597;49.030;1.822;2023-06-10T13:46:47;5.95;;;3.25;;
62543;SDS011;48597;49.030;1.822;2023-06-10T13:49:12;22.33;;;7.00;;
62543;SDS011;48597;49.030;1.822;2023-06-10T13:51:37;25.70;;;7.78;;
62543;SDS011;48597;49.030;1.822;2023-06-10T13:54:03;27.52;;;7.63;;
62543;SDS011;48597;49.030;1.822;2023-06-10T13:56:28;24.23;;;7.43;;
62543;SDS011;48597;49.030;1.822;2023-06-10T13:58:54;26.40;;;7.53;;
62543;SDS011;48597;49.030;1.822;2023-06-10T14:01:19;20.67;;;7.43;;
62543;SDS011;48597;49.030;1.822;2023-06-10T14:03:45;20.25;;;6.90;;
62543;SDS011;48597;49.030;1.822;2023-06-10T14:06:10;14.75;;;5.35;;
62543;SDS011;48597;49.030;1.822;2023-06-10T14:08:38;13.18;;;5.82;;
62543;SDS011;48597;49.030;1.822;2023-06-10T14:11:03;18.48;;;6.75;;
62543;SDS011;48597;49.030;1.822;2023-06-10T14:13:29;18.75;;;6.07;;
62543;SDS011;48597;49.030;1.822;2023-06-10T14:15:54;12.38;;;5.70;;
62543;SDS011;48597;49.030;1.822;2023-06-10T14:18:20;24.00;;;6.53;;
62543;SDS011;48597;49.030;1.822;2023-06-10T14:20:45;15.13;;;6.50;;
62543;SDS011;48597;49.030;1.822;2023-06-10T14:23:10;14.60;;;5.93;;
62543;SDS011;48597;49.030;1.822;2023-06-10T14:25:36;18.40;;;6.07;;
62543;SDS011;48597;49.030;1.822;2023-06-10T14:28:02;13.20;;;5.82;;
62543;SDS011;48597;49.030;1.822;2023-06-10T14:30:27;17.33;;;5.78;;
62543;SDS011;48597;49.030;1.822;2023-06-10T14:32:52;12.35;;;5.35;;
62543;SDS011;48597;49.030;1.822;2023-06-10T14:35:18;14.25;;;5.70;;
62543;SDS011;48597;49.030;1.822;2023-06-10T14:37:43;15.40;;;6.10;;
62543;SDS011;48597;49.030;1.822;2023-06-10T14:40:09;11.68;;;5.68;;
62543;SDS011;48597;49.030;1.822;2023-06-10T14:42:34;12.27;;;5.50;;
62543;SDS011;48597;49.030;1.822;2023-06-10T14:45:00;13.50;;;5.45;;
62543;SDS011;48597;49.030;1.822;2023-06-10T14:47:25;13.32;;;5.32;;
62543;SDS011;48597;49.030;1.822;2023-06-10T14:49:51;11.60;;;5.35;;
62543;SDS011;48597;49.030;1.822;2023-06-10T14:52:16;12.63;;;5.72;;
62543;SDS011;48597;49.030;1.822;2023-06-10T14:54:41;11.55;;;5.70;;
62543;SDS011;48597;49.030;1.822;2023-06-10T14:57:07;10.80;;;4.90;;
62543;SDS011;48597;49.030;1.822;2023-06-10T14:59:33;11.05;;;5.55;;
62543;SDS011;48597;49.030;1.822;2023-06-10T15:01:59;10.50;;;5.15;;
62543;SDS011;48597;49.030;1.822;2023-06-10T15:04:26;11.45;;;5.50;;
62543;SDS011;48597;49.030;1.822;2023-06-10T15:06:51;10.27;;;4.85;;
62543;SDS011;48597;49.030;1.822;2023-06-10T15:09:17;12.65;;;5.25;;
62543;SDS011;48597;49.030;1.822;2023-06-10T15:11:42;10.07;;;4.85;;
62543;SDS011;48597;49.030;1.822;2023-06-10T15:14:08;13.50;;;5.18;;